sensor_id;sensor_type;location;lat;lon;timestamp;temperature;humidity
17425;DHT22;8830;50.978;5.058;2022-09-09T00:00:58;15.50;99.90
17425;DHT22;8830;50.978;5.058;2022-09-09T00:03:27;15.50;99.90
17425;DHT22;8830;50.978;5.058;2022-09-09T00:06:00;15.50;99.90
17425;DHT22;8830;50.978;5.058;2022-09-09T00:08:37;15.50;99.90
17425;DHT22;8830;50.978;5.058;2022-09-09T00:11:11;15.50;99.90
17425;DHT22;8830;50.978;5.058;2022-09-09T00:13:45;15.50;99.90
17425;DHT22;8830;50.978;5.058;2022-09-09T00:16:17;15.40;99.90
17425;DHT22;8830;50.978;5.058;2022-09-09T00:18:53;15.40;99.90
17425;DHT22;8830;50.978;5.058;2022-09-09T00:21:25;15.40;99.90
17425;DHT22;8830;50.978;5.058;2022-09-09T00:23:56;15.40;99.90
17425;DHT22;8830;50.978;5.058;2022-09-09T00:26:31;15.40;99.90
17425;DHT22;8830;50.978;5.058;2022-09-09T00:29:13;15.40;99.90
17425;DHT22;8830;50.978;5.058;2022-09-09T00:31:41;15.40;99.90
17425;DHT22;8830;50.978;5.058;2022-09-09T00:34:12;15.40;99.90
17425;DHT22;8830;50.978;5.058;2022-09-09T00:36:40;15.30;99.90
17425;DHT22;8830;50.978;5.058;2022-09-09T00:39:17;15.30;99.90
17425;DHT22;8830;50.978;5.058;2022-09-09T00:41:55;15.30;99.90
17425;DHT22;8830;50.978;5.058;2022-09-09T00:44:30;15.30;99.90
17425;DHT22;8830;50.978;5.058;2022-09-09T00:47:19;15.30;99.90
17425;DHT22;8830;50.978;5.058;2022-09-09T00:49:57;15.20;99.90
17425;DHT22;8830;50.978;5.058;2022-09-09T00:52:32;15.30;99.90
17425;DHT22;8830;50.978;5.058;2022-09-09T00:55:07;15.30;99.90
17425;DHT22;8830;50.978;5.058;2022-09-09T00:57:39;15.20;99.90
17425;DHT22;8830;50.978;5.058;2022-09-09T01:00:19;15.20;99.90
17425;DHT22;8830;50.978;5.058;2022-09-09T01:02:53;15.20;99.90
17425;DHT22;8830;50.978;5.058;2022-09-09T01:05:34;15.10;99.90
17425;DHT22;8830;50.978;5.058;2022-09-09T01:08:11;15.10;99.90
17425;DHT22;8830;50.978;5.058;2022-09-09T01:10:49;15.10;99.90
17425;DHT22;8830;50.978;5.058;2022-09-09T01:13:22;15.10;99.90
17425;DHT22;8830;50.978;5.058;2022-09-09T01:15:50;15.10;99.90
17425;DHT22;8830;50.978;5.058;2022-09-09T01:18:21;15.10;99.90
17425;DHT22;8830;50.978;5.058;2022-09-09T01:20:55;15.10;99.90
17425;DHT22;8830;50.978;5.058;2022-09-09T01:23:41;15.10;99.90
17425;DHT22;8830;50.978;5.058;2022-09-09T01:26:18;15.10;99.90
17425;DHT22;8830;50.978;5.058;2022-09-09T01:28:47;15.10;99.90
17425;DHT22;8830;50.978;5.058;2022-09-09T01:31:18;15.10;99.90
17425;DHT22;8830;50.978;5.058;2022-09-09T01:33:46;15.10;99.90
17425;DHT22;8830;50.978;5.058;2022-09-09T01:36:20;17.30;99.90
17425;DHT22;8830;50.978;5.058;2022-09-09T01:38:48;15.10;99.90
17425;DHT22;8830;50.978;5.058;2022-09-09T01:41:16;15.10;99.90
17425;DHT22;8830;50.978;5.058;2022-09-09T01:43:43;15.10;99.90
17425;DHT22;8830;50.978;5.058;2022-09-09T01:46:12;15.10;99.90
17425;DHT22;8830;50.978;5.058;2022-09-09T01:48:40;15.20;99.90
17425;DHT22;8830;50.978;5.058;2022-09-09T01:51:08;15.10;99.90
17425;DHT22;8830;50.978;5.058;2022-09-09T01:53:35;15.10;99.90
17425;DHT22;8830;50.978;5.058;2022-09-09T01:56:13;15.10;99.90
17425;DHT22;8830;50.978;5.058;2022-09-09T01:58:54;15.10;99.90
17425;DHT22;8830;50.978;5.058;2022-09-09T02:01:28;15.10;99.90
17425;DHT22;8830;50.978;5.058;2022-09-09T02:03:59;15.10;99.90
17425;DHT22;8830;50.978;5.058;2022-09-09T02:06:35;15.10;99.90
17425;DHT22;8830;50.978;5.058;2022-09-09T02:09:05;15.10;99.90
17425;DHT22;8830;50.978;5.058;2022-09-09T02:11:33;15.10;99.90
17425;DHT22;8830;50.978;5.058;2022-09-09T02:14:05;15.10;99.90
17425;DHT22;8830;50.978;5.058;2022-09-09T02:16:39;15.10;99.90
17425;DHT22;8830;50.978;5.058;2022-09-09T02:19:10;15.10;99.90
17425;DHT22;8830;50.978;5.058;2022-09-09T02:21:40;15.10;99.90
17425;DHT22;8830;50.978;5.058;2022-09-09T02:24:09;15.00;99.90
17425;DHT22;8830;50.978;5.058;2022-09-09T02:26:40;15.20;99.90
17425;DHT22;8830;50.978;5.058;2022-09-09T02:29:12;15.00;99.90
17425;DHT22;8830;50.978;5.058;2022-09-09T02:31:41;15.00;99.90
17425;DHT22;8830;50.978;5.058;2022-09-09T02:34:09;15.00;99.90
17425;DHT22;8830;50.978;5.058;2022-09-09T02:36:40;15.00;99.90
17425;DHT22;8830;50.978;5.058;2022-09-09T02:39:10;15.00;99.90
17425;DHT22;8830;50.978;5.058;2022-09-09T02:41:39;15.00;99.90
17425;DHT22;8830;50.978;5.058;2022-09-09T02:44:10;15.00;99.90
17425;DHT22;8830;50.978;5.058;2022-09-09T02:46:59;15.00;99.90
17425;DHT22;8830;50.978;5.058;2022-09-09T02:49:39;15.00;99.90
17425;DHT22;8830;50.978;5.058;2022-09-09T02:52:10;15.00;99.90
17425;DHT22;8830;50.978;5.058;2022-09-09T02:54:39;15.00;99.90
17425;DHT22;8830;50.978;5.058;2022-09-09T02:57:11;15.00;99.90
17425;DHT22;8830;50.978;5.058;2022-09-09T02:59:40;15.00;99.90
17425;DHT22;8830;50.978;5.058;2022-09-09T03:02:07;15.00;99.90
17425;DHT22;8830;50.978;5.058;2022-09-09T03:04:35;15.00;99.90
17425;DHT22;8830;50.978;5.058;2022-09-09T03:07:03;15.10;99.90
17425;DHT22;8830;50.978;5.058;2022-09-09T03:09:30;15.20;99.90
17425;DHT22;8830;50.978;5.058;2022-09-09T03:11:58;15.30;99.90
17425;DHT22;8830;50.978;5.058;2022-09-09T03:14:26;15.30;99.90
17425;DHT22;8830;50.978;5.058;2022-09-09T03:16:54;15.40;99.90
17425;DHT22;8830;50.978;5.058;2022-09-09T03:19:22;15.30;99.90
17425;DHT22;8830;50.978;5.058;2022-09-09T03:21:49;15.40;99.90
17425;DHT22;8830;50.978;5.058;2022-09-09T03:24:16;15.30;99.90
17425;DHT22;8830;50.978;5.058;2022-09-09T03:26:43;15.30;99.90
17425;DHT22;8830;50.978;5.058;2022-09-09T03:29:12;15.30;99.90
17425;DHT22;8830;50.978;5.058;2022-09-09T03:31:39;15.40;99.90
17425;DHT22;8830;50.978;5.058;2022-09-09T03:34:08;15.40;99.90
17425;DHT22;8830;50.978;5.058;2022-09-09T03:36:35;15.40;99.90
17425;DHT22;8830;50.978;5.058;2022-09-09T03:39:02;15.40;99.90
17425;DHT22;8830;50.978;5.058;2022-09-09T03:41:31;15.40;99.90
17425;DHT22;8830;50.978;5.058;2022-09-09T03:43:58;15.40;99.90
17425;DHT22;8830;50.978;5.058;2022-09-09T03:46:25;15.40;99.90
17425;DHT22;8830;50.978;5.058;2022-09-09T03:48:52;15.40;99.90
17425;DHT22;8830;50.978;5.058;2022-09-09T03:51:21;15.30;99.90
17425;DHT22;8830;50.978;5.058;2022-09-09T03:53:48;15.30;99.90
17425;DHT22;8830;50.978;5.058;2022-09-09T03:56:15;15.20;99.90
17425;DHT22;8830;50.978;5.058;2022-09-09T03:58:43;15.20;99.90
17425;DHT22;8830;50.978;5.058;2022-09-09T04:01:11;15.20;99.90
17425;DHT22;8830;50.978;5.058;2022-09-09T04:03:40;15.20;99.90
17425;DHT22;8830;50.978;5.058;2022-09-09T04:06:09;15.20;99.90
17425;DHT22;8830;50.978;5.058;2022-09-09T04:08:39;15.20;99.90
17425;DHT22;8830;50.978;5.058;2022-09-09T04:11:07;15.20;99.90
17425;DHT22;8830;50.978;5.058;2022-09-09T04:13:36;15.20;99.90
17425;DHT22;8830;50.978;5.058;2022-09-09T04:16:05;15.20;99.90
17425;DHT22;8830;50.978;5.058;2022-09-09T04:18:32;15.20;99.90
17425;DHT22;8830;50.978;5.058;2022-09-09T04:21:01;15.20;99.90
17425;DHT22;8830;50.978;5.058;2022-09-09T04:23:29;15.20;99.90
17425;DHT22;8830;50.978;5.058;2022-09-09T04:25:59;15.10;99.90
17425;DHT22;8830;50.978;5.058;2022-09-09T04:28:27;15.20;99.90
17425;DHT22;8830;50.978;5.058;2022-09-09T04:33:24;15.10;99.90
17425;DHT22;8830;50.978;5.058;2022-09-09T04:35:52;15.10;99.90
17425;DHT22;8830;50.978;5.058;2022-09-09T04:38:20;15.10;99.90
17425;DHT22;8830;50.978;5.058;2022-09-09T04:40:50;15.10;99.90
17425;DHT22;8830;50.978;5.058;2022-09-09T04:43:19;15.10;99.90
17425;DHT22;8830;50.978;5.058;2022-09-09T04:45:48;15.10;99.90
17425;DHT22;8830;50.978;5.058;2022-09-09T04:53:11;15.10;99.90
17425;DHT22;8830;50.978;5.058;2022-09-09T04:55:38;15.10;99.90
17425;DHT22;8830;50.978;5.058;2022-09-09T04:58:07;15.20;99.90
17425;DHT22;8830;50.978;5.058;2022-09-09T05:05:31;15.10;99.90
17425;DHT22;8830;50.978;5.058;2022-09-09T05:08:01;15.10;99.90
17425;DHT22;8830;50.978;5.058;2022-09-09T05:10:29;15.20;99.90
17425;DHT22;8830;50.978;5.058;2022-09-09T05:20:22;15.30;99.90
17425;DHT22;8830;50.978;5.058;2022-09-09T05:37:51;15.50;99.90
17425;DHT22;8830;50.978;5.058;2022-09-09T05:40:19;15.50;99.90
17425;DHT22;8830;50.978;5.058;2022-09-09T05:42:47;15.50;99.90
17425;DHT22;8830;50.978;5.058;2022-09-09T05:45:15;15.60;99.90
17425;DHT22;8830;50.978;5.058;2022-09-09T06:07:49;17.00;99.90
17425;DHT22;8830;50.978;5.058;2022-09-09T06:10:22;17.20;99.90
17425;DHT22;8830;50.978;5.058;2022-09-09T06:12:55;17.20;99.90
17425;DHT22;8830;50.978;5.058;2022-09-09T06:15:24;18.90;99.90
17425;DHT22;8830;50.978;5.058;2022-09-09T06:17:54;19.20;99.90
17425;DHT22;8830;50.978;5.058;2022-09-09T06:25:32;21.10;99.90
17425;DHT22;8830;50.978;5.058;2022-09-09T06:28:00;21.70;99.90
17425;DHT22;8830;50.978;5.058;2022-09-09T06:35:51;24.60;99.90
17425;DHT22;8830;50.978;5.058;2022-09-09T06:38:23;23.00;99.90
17425;DHT22;8830;50.978;5.058;2022-09-09T06:40:57;21.20;99.90
17425;DHT22;8830;50.978;5.058;2022-09-09T06:43:35;21.10;99.90
17425;DHT22;8830;50.978;5.058;2022-09-09T06:46:10;20.50;99.90
17425;DHT22;8830;50.978;5.058;2022-09-09T06:48:45;19.40;99.90
17425;DHT22;8830;50.978;5.058;2022-09-09T06:51:18;19.40;99.90
17425;DHT22;8830;50.978;5.058;2022-09-09T06:53:54;19.10;99.90
17425;DHT22;8830;50.978;5.058;2022-09-09T06:56:25;19.00;99.90
17425;DHT22;8830;50.978;5.058;2022-09-09T06:58:56;18.90;99.90
17425;DHT22;8830;50.978;5.058;2022-09-09T07:01:26;18.60;99.90
17425;DHT22;8830;50.978;5.058;2022-09-09T07:03:56;18.20;99.90
17425;DHT22;8830;50.978;5.058;2022-09-09T07:06:29;17.90;99.90
17425;DHT22;8830;50.978;5.058;2022-09-09T07:09:05;17.90;99.90
17425;DHT22;8830;50.978;5.058;2022-09-09T07:11:38;18.30;99.90
17425;DHT22;8830;50.978;5.058;2022-09-09T07:14:07;18.70;99.90
17425;DHT22;8830;50.978;5.058;2022-09-09T07:16:39;18.70;99.90
17425;DHT22;8830;50.978;5.058;2022-09-09T07:19:08;18.90;99.90
17425;DHT22;8830;50.978;5.058;2022-09-09T07:21:36;19.10;99.90
17425;DHT22;8830;50.978;5.058;2022-09-09T07:24:05;19.10;99.90
17425;DHT22;8830;50.978;5.058;2022-09-09T07:26:37;19.00;99.90
17425;DHT22;8830;50.978;5.058;2022-09-09T07:29:05;18.90;99.90
17425;DHT22;8830;50.978;5.058;2022-09-09T07:31:33;18.90;99.90
17425;DHT22;8830;50.978;5.058;2022-09-09T07:34:03;18.80;99.90
17425;DHT22;8830;50.978;5.058;2022-09-09T07:36:33;18.80;99.90
17425;DHT22;8830;50.978;5.058;2022-09-09T07:39:04;18.70;99.90
17425;DHT22;8830;50.978;5.058;2022-09-09T07:41:35;18.70;99.90
17425;DHT22;8830;50.978;5.058;2022-09-09T07:44:05;18.50;99.90
17425;DHT22;8830;50.978;5.058;2022-09-09T07:46:33;18.50;99.90
17425;DHT22;8830;50.978;5.058;2022-09-09T07:49:02;18.40;99.90
17425;DHT22;8830;50.978;5.058;2022-09-09T07:51:33;18.50;99.90
17425;DHT22;8830;50.978;5.058;2022-09-09T07:54:04;18.40;99.90
17425;DHT22;8830;50.978;5.058;2022-09-09T07:56:33;18.40;99.90
17425;DHT22;8830;50.978;5.058;2022-09-09T07:59:02;18.50;99.90
17425;DHT22;8830;50.978;5.058;2022-09-09T08:01:33;18.40;99.90
17425;DHT22;8830;50.978;5.058;2022-09-09T08:04:10;18.40;99.90
17425;DHT22;8830;50.978;5.058;2022-09-09T08:06:43;18.50;99.90
17425;DHT22;8830;50.978;5.058;2022-09-09T08:09:14;18.60;99.90
17425;DHT22;8830;50.978;5.058;2022-09-09T08:11:47;18.70;99.90
17425;DHT22;8830;50.978;5.058;2022-09-09T08:14:14;18.70;99.90
17425;DHT22;8830;50.978;5.058;2022-09-09T08:16:45;18.70;99.90
17425;DHT22;8830;50.978;5.058;2022-09-09T08:19:13;18.70;99.90
17425;DHT22;8830;50.978;5.058;2022-09-09T08:21:41;18.70;99.90
17425;DHT22;8830;50.978;5.058;2022-09-09T08:24:13;18.70;99.90
17425;DHT22;8830;50.978;5.058;2022-09-09T08:26:42;18.60;99.90
17425;DHT22;8830;50.978;5.058;2022-09-09T08:29:17;18.60;99.90
17425;DHT22;8830;50.978;5.058;2022-09-09T08:31:50;18.50;99.90
17425;DHT22;8830;50.978;5.058;2022-09-09T08:34:31;18.50;99.90
17425;DHT22;8830;50.978;5.058;2022-09-09T08:37:02;18.50;99.90
17425;DHT22;8830;50.978;5.058;2022-09-09T08:39:31;18.70;99.90
17425;DHT22;8830;50.978;5.058;2022-09-09T08:42:21;18.80;99.90
17425;DHT22;8830;50.978;5.058;2022-09-09T08:45:05;18.90;99.90
17425;DHT22;8830;50.978;5.058;2022-09-09T08:47:44;18.80;99.90
17425;DHT22;8830;50.978;5.058;2022-09-09T08:50:21;18.80;99.90
17425;DHT22;8830;50.978;5.058;2022-09-09T08:53:01;19.00;99.90
17425;DHT22;8830;50.978;5.058;2022-09-09T08:55:38;19.20;99.90
17425;DHT22;8830;50.978;5.058;2022-09-09T08:58:13;19.30;99.90
17425;DHT22;8830;50.978;5.058;2022-09-09T09:00:51;19.10;99.90
17425;DHT22;8830;50.978;5.058;2022-09-09T09:03:30;19.10;99.90
17425;DHT22;8830;50.978;5.058;2022-09-09T09:06:06;19.40;99.90
17425;DHT22;8830;50.978;5.058;2022-09-09T09:08:43;19.40;99.90
17425;DHT22;8830;50.978;5.058;2022-09-09T09:11:16;19.40;99.90
17425;DHT22;8830;50.978;5.058;2022-09-09T09:13:48;19.00;99.90
17425;DHT22;8830;50.978;5.058;2022-09-09T09:16:29;19.10;99.90
17425;DHT22;8830;50.978;5.058;2022-09-09T09:19:05;19.00;99.90
17425;DHT22;8830;50.978;5.058;2022-09-09T09:21:50;19.00;99.90
17425;DHT22;8830;50.978;5.058;2022-09-09T09:24:27;18.60;99.90
17425;DHT22;8830;50.978;5.058;2022-09-09T09:27:14;18.60;99.90
17425;DHT22;8830;50.978;5.058;2022-09-09T09:29:46;18.60;99.90
17425;DHT22;8830;50.978;5.058;2022-09-09T09:32:20;18.50;99.90
17425;DHT22;8830;50.978;5.058;2022-09-09T09:34:54;18.30;99.90
17425;DHT22;8830;50.978;5.058;2022-09-09T09:37:32;18.20;99.90
17425;DHT22;8830;50.978;5.058;2022-09-09T09:40:14;18.10;99.90
17425;DHT22;8830;50.978;5.058;2022-09-09T09:43:18;18.00;99.90
17425;DHT22;8830;50.978;5.058;2022-09-09T09:45:56;18.00;99.90
17425;DHT22;8830;50.978;5.058;2022-09-09T09:48:28;18.00;99.90
17425;DHT22;8830;50.978;5.058;2022-09-09T09:50:59;18.10;99.90
17425;DHT22;8830;50.978;5.058;2022-09-09T09:53:34;17.80;99.90
17425;DHT22;8830;50.978;5.058;2022-09-09T09:56:05;17.80;99.90
17425;DHT22;8830;50.978;5.058;2022-09-09T09:58:49;17.70;99.90
17425;DHT22;8830;50.978;5.058;2022-09-09T10:01:27;17.60;99.90
17425;DHT22;8830;50.978;5.058;2022-09-09T10:04:17;17.50;99.90
17425;DHT22;8830;50.978;5.058;2022-09-09T10:06:54;17.60;99.90
17425;DHT22;8830;50.978;5.058;2022-09-09T10:09:24;17.60;99.90
17425;DHT22;8830;50.978;5.058;2022-09-09T10:11:59;17.60;99.90
17425;DHT22;8830;50.978;5.058;2022-09-09T10:15:00;17.60;99.90
17425;DHT22;8830;50.978;5.058;2022-09-09T10:17:38;17.70;99.90
17425;DHT22;8830;50.978;5.058;2022-09-09T10:20:21;17.70;99.90
17425;DHT22;8830;50.978;5.058;2022-09-09T10:22:51;17.70;99.90
17425;DHT22;8830;50.978;5.058;2022-09-09T10:25:39;18.00;99.90
17425;DHT22;8830;50.978;5.058;2022-09-09T10:28:20;18.10;99.90
17425;DHT22;8830;50.978;5.058;2022-09-09T10:30:55;16.10;99.90
17425;DHT22;8830;50.978;5.058;2022-09-09T10:33:29;18.30;99.90
17425;DHT22;8830;50.978;5.058;2022-09-09T10:36:05;18.20;99.90
17425;DHT22;8830;50.978;5.058;2022-09-09T10:38:40;18.40;99.90
17425;DHT22;8830;50.978;5.058;2022-09-09T10:41:33;18.40;99.90
17425;DHT22;8830;50.978;5.058;2022-09-09T10:47:20;18.70;99.90
17425;DHT22;8830;50.978;5.058;2022-09-09T10:50:06;18.70;99.90
17425;DHT22;8830;50.978;5.058;2022-09-09T10:52:43;18.80;99.90
17425;DHT22;8830;50.978;5.058;2022-09-09T10:55:17;18.80;99.90
17425;DHT22;8830;50.978;5.058;2022-09-09T10:57:50;19.00;99.90
17425;DHT22;8830;50.978;5.058;2022-09-09T11:00:23;19.10;99.90
17425;DHT22;8830;50.978;5.058;2022-09-09T11:02:58;19.10;99.90
17425;DHT22;8830;50.978;5.058;2022-09-09T11:05:31;19.00;99.90
17425;DHT22;8830;50.978;5.058;2022-09-09T11:08:04;19.10;99.90
17425;DHT22;8830;50.978;5.058;2022-09-09T11:10:39;19.20;99.90
17425;DHT22;8830;50.978;5.058;2022-09-09T11:13:14;19.10;99.90
17425;DHT22;8830;50.978;5.058;2022-09-09T11:15:58;18.80;99.90
17425;DHT22;8830;50.978;5.058;2022-09-09T11:18:40;18.80;99.90
17425;DHT22;8830;50.978;5.058;2022-09-09T11:21:21;18.80;99.90
17425;DHT22;8830;50.978;5.058;2022-09-09T11:24:03;18.90;99.90
17425;DHT22;8830;50.978;5.058;2022-09-09T11:26:46;19.20;99.90
17425;DHT22;8830;50.978;5.058;2022-09-09T11:32:53;19.80;99.90
17425;DHT22;8830;50.978;5.058;2022-09-09T11:35:53;19.80;99.90
17425;DHT22;8830;50.978;5.058;2022-09-09T11:38:28;20.00;99.90
17425;DHT22;8830;50.978;5.058;2022-09-09T11:40:58;20.10;99.90
17425;DHT22;8830;50.978;5.058;2022-09-09T11:43:30;20.10;99.90
17425;DHT22;8830;50.978;5.058;2022-09-09T11:46:01;20.10;99.90
17425;DHT22;8830;50.978;5.058;2022-09-09T11:48:35;20.20;99.90
17425;DHT22;8830;50.978;5.058;2022-09-09T11:51:08;19.90;99.90
17425;DHT22;8830;50.978;5.058;2022-09-09T11:53:48;19.80;99.90
17425;DHT22;8830;50.978;5.058;2022-09-09T11:56:28;20.30;99.90
17425;DHT22;8830;50.978;5.058;2022-09-09T11:58:59;20.40;99.90
17425;DHT22;8830;50.978;5.058;2022-09-09T12:01:35;20.60;99.90
17425;DHT22;8830;50.978;5.058;2022-09-09T12:07:04;20.80;99.90
17425;DHT22;8830;50.978;5.058;2022-09-09T12:09:47;20.90;99.90
17425;DHT22;8830;50.978;5.058;2022-09-09T12:12:32;20.90;99.90
17425;DHT22;8830;50.978;5.058;2022-09-09T12:17:49;21.10;99.90
17425;DHT22;8830;50.978;5.058;2022-09-09T12:20:19;21.30;99.90
17425;DHT22;8830;50.978;5.058;2022-09-09T12:23:11;21.60;99.90
17425;DHT22;8830;50.978;5.058;2022-09-09T12:25:52;21.40;99.90
17425;DHT22;8830;50.978;5.058;2022-09-09T12:28:24;21.40;99.90
17425;DHT22;8830;50.978;5.058;2022-09-09T12:30:58;21.80;99.90
17425;DHT22;8830;50.978;5.058;2022-09-09T12:33:34;21.90;99.90
17425;DHT22;8830;50.978;5.058;2022-09-09T12:36:03;22.10;99.90
17425;DHT22;8830;50.978;5.058;2022-09-09T12:38:36;22.10;99.90
17425;DHT22;8830;50.978;5.058;2022-09-09T12:41:05;22.10;99.90
17425;DHT22;8830;50.978;5.058;2022-09-09T12:43:32;22.00;99.90
17425;DHT22;8830;50.978;5.058;2022-09-09T12:46:01;22.00;99.90
17425;DHT22;8830;50.978;5.058;2022-09-09T12:48:37;22.10;99.90
17425;DHT22;8830;50.978;5.058;2022-09-09T12:51:16;21.70;99.90
17425;DHT22;8830;50.978;5.058;2022-09-09T12:53:48;21.30;99.90
17425;DHT22;8830;50.978;5.058;2022-09-09T12:56:21;21.30;99.90
17425;DHT22;8830;50.978;5.058;2022-09-09T12:58:52;21.30;99.90
17425;DHT22;8830;50.978;5.058;2022-09-09T13:01:24;21.70;99.90
17425;DHT22;8830;50.978;5.058;2022-09-09T13:03:52;21.80;99.90
17425;DHT22;8830;50.978;5.058;2022-09-09T13:06:28;22.00;99.90
17425;DHT22;8830;50.978;5.058;2022-09-09T13:09:02;22.10;99.90
17425;DHT22;8830;50.978;5.058;2022-09-09T13:11:37;22.10;99.90
17425;DHT22;8830;50.978;5.058;2022-09-09T13:14:15;21.80;99.90
17425;DHT22;8830;50.978;5.058;2022-09-09T13:16:58;21.90;99.90
17425;DHT22;8830;50.978;5.058;2022-09-09T13:19:34;21.90;99.90
17425;DHT22;8830;50.978;5.058;2022-09-09T13:22:14;21.80;99.90
17425;DHT22;8830;50.978;5.058;2022-09-09T13:25:19;21.80;99.90
17425;DHT22;8830;50.978;5.058;2022-09-09T13:28:04;21.60;99.90
17425;DHT22;8830;50.978;5.058;2022-09-09T13:30:36;21.50;99.90
17425;DHT22;8830;50.978;5.058;2022-09-09T13:33:33;21.70;99.90
17425;DHT22;8830;50.978;5.058;2022-09-09T13:36:41;21.70;99.90
17425;DHT22;8830;50.978;5.058;2022-09-09T13:39:23;22.20;99.90
17425;DHT22;8830;50.978;5.058;2022-09-09T13:42:24;22.20;99.90
17425;DHT22;8830;50.978;5.058;2022-09-09T13:45:15;22.00;99.90
17425;DHT22;8830;50.978;5.058;2022-09-09T13:47:59;22.20;99.90
17425;DHT22;8830;50.978;5.058;2022-09-09T13:50:35;22.30;99.90
17425;DHT22;8830;50.978;5.058;2022-09-09T13:53:09;22.30;99.90
17425;DHT22;8830;50.978;5.058;2022-09-09T13:55:38;22.30;99.90
17425;DHT22;8830;50.978;5.058;2022-09-09T13:58:17;22.30;99.90
17425;DHT22;8830;50.978;5.058;2022-09-09T14:00:45;22.40;99.90
17425;DHT22;8830;50.978;5.058;2022-09-09T14:03:13;22.60;99.90
17425;DHT22;8830;50.978;5.058;2022-09-09T14:05:44;22.80;99.90
17425;DHT22;8830;50.978;5.058;2022-09-09T14:08:20;22.90;99.90
17425;DHT22;8830;50.978;5.058;2022-09-09T14:36:09;23.10;99.90
17425;DHT22;8830;50.978;5.058;2022-09-09T14:38:37;23.10;99.90
17425;DHT22;8830;50.978;5.058;2022-09-09T14:41:05;23.00;99.90
17425;DHT22;8830;50.978;5.058;2022-09-09T14:43:38;22.90;99.90
17425;DHT22;8830;50.978;5.058;2022-09-09T14:46:07;22.90;99.90
17425;DHT22;8830;50.978;5.058;2022-09-09T14:48:48;23.00;99.90
17425;DHT22;8830;50.978;5.058;2022-09-09T14:51:38;23.00;99.90
17425;DHT22;8830;50.978;5.058;2022-09-09T14:55:02;22.90;99.90
17425;DHT22;8830;50.978;5.058;2022-09-09T14:57:45;22.80;99.90
17425;DHT22;8830;50.978;5.058;2022-09-09T15:03:39;22.60;99.90
17425;DHT22;8830;50.978;5.058;2022-09-09T15:06:08;22.60;99.90
17425;DHT22;8830;50.978;5.058;2022-09-09T15:13:38;22.40;99.90
17425;DHT22;8830;50.978;5.058;2022-09-09T15:16:06;22.40;99.90
17425;DHT22;8830;50.978;5.058;2022-09-09T15:21:09;22.30;99.90
17425;DHT22;8830;50.978;5.058;2022-09-09T15:23:36;22.40;99.90
17425;DHT22;8830;50.978;5.058;2022-09-09T15:26:04;22.40;99.90
17425;DHT22;8830;50.978;5.058;2022-09-09T15:28:32;22.50;99.90
17425;DHT22;8830;50.978;5.058;2022-09-09T15:31:09;22.40;99.90
17425;DHT22;8830;50.978;5.058;2022-09-09T15:33:38;22.60;99.90
17425;DHT22;8830;50.978;5.058;2022-09-09T15:36:15;22.60;99.90
17425;DHT22;8830;50.978;5.058;2022-09-09T15:38:43;22.60;99.90
17425;DHT22;8830;50.978;5.058;2022-09-09T15:41:10;22.60;99.90
17425;DHT22;8830;50.978;5.058;2022-09-09T15:43:38;22.60;99.90
17425;DHT22;8830;50.978;5.058;2022-09-09T15:46:25;22.60;99.90
17425;DHT22;8830;50.978;5.058;2022-09-09T15:48:57;22.50;99.90
17425;DHT22;8830;50.978;5.058;2022-09-09T15:51:25;22.30;99.90
17425;DHT22;8830;50.978;5.058;2022-09-09T15:53:57;22.30;99.90
17425;DHT22;8830;50.978;5.058;2022-09-09T15:56:26;22.30;99.90
17425;DHT22;8830;50.978;5.058;2022-09-09T15:58:55;22.00;99.90
17425;DHT22;8830;50.978;5.058;2022-09-09T16:01:24;22.00;99.90
17425;DHT22;8830;50.978;5.058;2022-09-09T16:03:52;21.80;99.90
17425;DHT22;8830;50.978;5.058;2022-09-09T16:06:21;21.80;99.90
17425;DHT22;8830;50.978;5.058;2022-09-09T16:08:50;22.20;99.90
17425;DHT22;8830;50.978;5.058;2022-09-09T16:11:19;21.60;99.90
17425;DHT22;8830;50.978;5.058;2022-09-09T16:13:48;21.50;99.90
17425;DHT22;8830;50.978;5.058;2022-09-09T16:16:16;21.40;99.90
17425;DHT22;8830;50.978;5.058;2022-09-09T16:18:46;21.30;99.90
17425;DHT22;8830;50.978;5.058;2022-09-09T16:21:16;21.20;99.90
17425;DHT22;8830;50.978;5.058;2022-09-09T16:23:47;21.30;99.90
17425;DHT22;8830;50.978;5.058;2022-09-09T16:26:15;21.20;99.90
17425;DHT22;8830;50.978;5.058;2022-09-09T16:28:46;21.20;99.90
17425;DHT22;8830;50.978;5.058;2022-09-09T16:31:15;21.20;99.90
17425;DHT22;8830;50.978;5.058;2022-09-09T16:33:44;21.10;99.90
17425;DHT22;8830;50.978;5.058;2022-09-09T16:36:13;21.00;99.90
17425;DHT22;8830;50.978;5.058;2022-09-09T16:38:40;21.00;99.90
17425;DHT22;8830;50.978;5.058;2022-09-09T16:41:11;21.00;99.90
17425;DHT22;8830;50.978;5.058;2022-09-09T16:43:38;21.00;99.90
17425;DHT22;8830;50.978;5.058;2022-09-09T16:46:12;21.00;99.90
17425;DHT22;8830;50.978;5.058;2022-09-09T16:48:41;21.10;99.90
17425;DHT22;8830;50.978;5.058;2022-09-09T16:51:13;21.10;99.90
17425;DHT22;8830;50.978;5.058;2022-09-09T16:53:41;21.10;99.90
17425;DHT22;8830;50.978;5.058;2022-09-09T16:56:13;21.10;99.90
17425;DHT22;8830;50.978;5.058;2022-09-09T16:58:42;21.00;99.90
17425;DHT22;8830;50.978;5.058;2022-09-09T17:01:12;20.90;99.90
17425;DHT22;8830;50.978;5.058;2022-09-09T17:03:40;20.90;99.90
17425;DHT22;8830;50.978;5.058;2022-09-09T17:06:09;20.80;99.90
17425;DHT22;8830;50.978;5.058;2022-09-09T17:08:37;20.70;99.90
17425;DHT22;8830;50.978;5.058;2022-09-09T17:11:11;20.50;99.90
17425;DHT22;8830;50.978;5.058;2022-09-09T17:13:40;20.40;99.90
17425;DHT22;8830;50.978;5.058;2022-09-09T17:16:07;20.20;99.90
17425;DHT22;8830;50.978;5.058;2022-09-09T17:18:35;20.10;99.90
17425;DHT22;8830;50.978;5.058;2022-09-09T17:21:03;20.00;99.90
17425;DHT22;8830;50.978;5.058;2022-09-09T17:23:32;20.00;99.90
17425;DHT22;8830;50.978;5.058;2022-09-09T17:26:00;20.00;99.90
17425;DHT22;8830;50.978;5.058;2022-09-09T17:28:30;20.00;99.90
17425;DHT22;8830;50.978;5.058;2022-09-09T17:30:57;19.90;99.90
17425;DHT22;8830;50.978;5.058;2022-09-09T17:33:26;20.00;99.90
17425;DHT22;8830;50.978;5.058;2022-09-09T17:35:57;19.90;99.90
17425;DHT22;8830;50.978;5.058;2022-09-09T17:38:25;19.90;99.90
17425;DHT22;8830;50.978;5.058;2022-09-09T17:41:05;20.00;99.90
17425;DHT22;8830;50.978;5.058;2022-09-09T17:43:36;20.00;99.90
17425;DHT22;8830;50.978;5.058;2022-09-09T17:46:07;19.90;99.90
17425;DHT22;8830;50.978;5.058;2022-09-09T17:48:36;19.90;99.90
17425;DHT22;8830;50.978;5.058;2022-09-09T17:51:04;19.90;99.90
17425;DHT22;8830;50.978;5.058;2022-09-09T17:53:36;19.80;99.90
17425;DHT22;8830;50.978;5.058;2022-09-09T17:56:06;19.70;99.90
17425;DHT22;8830;50.978;5.058;2022-09-09T17:58:36;19.70;99.90
17425;DHT22;8830;50.978;5.058;2022-09-09T18:01:04;19.60;99.90
17425;DHT22;8830;50.978;5.058;2022-09-09T18:03:33;19.50;99.90
17425;DHT22;8830;50.978;5.058;2022-09-09T18:06:03;19.30;99.90
17425;DHT22;8830;50.978;5.058;2022-09-09T18:08:31;19.40;99.90
17425;DHT22;8830;50.978;5.058;2022-09-09T18:10:58;19.20;99.90
17425;DHT22;8830;50.978;5.058;2022-09-09T18:13:26;19.10;99.90
17425;DHT22;8830;50.978;5.058;2022-09-09T18:15:55;18.80;99.90